Time;durP1;ratioP1;P1;durP2;ratioP2;P2;SDS_P1;SDS_P2;PMS_P1;PMS_P2;Temp;Humidity;BMP_temperature;BMP_pressure;BME280_temperature;BME280_humidity;BME280_pressure;Samples;Min_cycle;Max_cycle;Signal;HPM_P1;HPM_P2
2021/01/19 00:02:19;;;;;;;0.50;0.50;;;3.60;99.90;;;;;;4950633;29;20227;-87
2021/01/19 00:04:50;;;;;;;0.47;0.47;;;3.80;99.90;;;;;;4943218;29;20556;-87
2021/01/19 00:07:16;;;;;;;0.50;0.50;;;;;;;;;;4948468;29;20298;-87
2021/01/19 00:09:47;;;;;;;0.50;0.50;;;3.60;99.90;;;;;;4950365;29;20203;-86
2021/01/19 00:12:21;;;;;;;0.40;0.40;;;3.60;99.90;;;;;;4955716;29;20215;-88
2021/01/19 00:14:48;;;;;;;0.50;0.50;;;;;;;;;;4955503;29;20261;-86
2021/01/19 00:17:37;;;;;;;;;;;;;;;;;;;;;
2021/01/19 00:20:18;;;;;;;0.50;0.50;;;2.70;99.90;;;;;;4944918;29;20212;-86
2021/01/19 00:22:45;;;;;;;0.50;0.50;;;;;;;;;;4943217;28;20246;-86
2021/01/19 00:25:26;;;;;;;0.50;0.50;;;3.60;99.90;;;;;;4954035;29;20211;-87
2021/01/19 00:27:52;;;;;;;0.50;0.50;;;;;;;;;;4953751;29;20211;-87
2021/01/19 00:30:18;;;;;;;0.40;0.40;;;3.60;99.90;;;;;;4953538;29;20208;-87
2021/01/19 00:32:45;;;;;;;0.50;0.50;;;;;;;;;;4953565;29;20211;-87
2021/01/19 00:35:12;;;;;;;0.50;0.50;;;3.50;99.90;;;;;;4953618;29;20222;-86
2021/01/19 00:37:39;;;;;;;0.40;0.40;;;3.40;99.90;;;;;;4953836;29;20215;-86
2021/01/19 00:40:09;;;;;;;0.50;0.50;;;3.50;99.90;;;;;;4953466;29;20456;-86
2021/01/19 00:42:35;;;;;;;0.50;0.50;;;;;;;;;;4953235;29;20236;-87
2021/01/19 00:45:02;;;;;;;0.50;0.50;;;;;;;;;;4953825;29;20211;-88
2021/01/19 00:47:31;;;;;;;0.50;0.50;;;3.50;99.90;;;;;;4954129;29;20212;-89
2021/01/19 00:49:57;;;;;;;0.50;0.50;;;;;;;;;;4954320;29;20210;-88
2021/01/19 00:52:25;;;;;;;0.50;0.50;;;3.50;99.90;;;;;;4954292;29;20214;-89
2021/01/19 00:54:54;;;;;;;0.50;0.50;;;3.60;99.90;;;;;;4953765;29;20231;-88
2021/01/19 00:57:26;;;;;;;0.50;0.50;;;3.30;99.90;;;;;;4954085;29;20212;-88
2021/01/19 00:59:55;;;;;;;0.50;0.50;;;2.80;99.90;;;;;;4954029;29;20236;-88
2021/01/19 01:02:22;;;;;;;0.50;0.50;;;;;;;;;;4953587;29;20295;-89
2021/01/19 01:04:48;;;;;;;0.50;0.50;;;;;;;;;;4953338;29;20212;-88
2021/01/19 01:07:17;;;;;;;0.50;0.50;;;3.50;99.90;;;;;;4953486;29;20207;-88
2021/01/19 01:09:44;;;;;;;0.50;0.50;;;3.40;99.90;;;;;;4953500;29;20196;-88
2021/01/19 01:12:10;;;;;;;0.45;0.45;;;4.60;99.90;;;;;;4953117;29;20841;-88
2021/01/19 01:14:45;;;;;;;0.50;0.50;;;;;;;;;;4953008;29;20794;-88
2021/01/19 01:17:12;;;;;;;0.50;0.50;;;;;;;;;;4952855;29;20674;-88
2021/01/19 01:19:38;;;;;;;0.50;0.50;;;;;;;;;;4952639;29;20222;-88
2021/01/19 01:22:08;;;;;;;0.50;0.50;;;;;;;;;;4953342;29;20521;-88
2021/01/19 01:24:34;;;;;;;0.50;0.50;;;3.50;99.90;;;;;;4952934;28;20235;-88
2021/01/19 01:27:01;;;;;;;0.50;0.50;;;4.30;99.90;;;;;;4952810;29;20580;-88
2021/01/19 01:29:28;;;;;;;0.50;0.50;;;;;;;;;;4952788;29;20207;-87
2021/01/19 01:31:57;;;;;;;0.50;0.50;;;3.50;99.90;;;;;;4952914;29;20215;-87
2021/01/19 01:34:23;;;;;;;0.50;0.50;;;3.70;99.90;;;;;;4952020;28;20298;-87
2021/01/19 01:36:51;;;;;;;0.50;0.50;;;2.60;99.90;;;;;;4953444;29;20261;-88
2021/01/19 01:39:41;;;;;;;0.50;0.50;;;3.50;99.90;;;;;;4956729;29;20696;-88
2021/01/19 01:42:25;;;;;;;0.40;0.40;;;3.10;99.90;;;;;;4950547;29;20238;-90
2021/01/19 01:44:52;;;;;;;0.40;0.40;;;3.30;99.90;;;;;;4962889;28;20203;-89
2021/01/19 01:47:24;;;;;;;0.50;0.50;;;3.40;99.90;;;;;;4964871;29;20208;-90
2021/01/19 01:49:54;;;;;;;0.50;0.50;;;3.30;99.90;;;;;;4966407;29;20721;-90
2021/01/19 01:52:30;;;;;;;0.50;0.50;;;3.90;99.90;;;;;;4967755;29;20203;-90
2021/01/19 01:55:02;;;;;;;0.50;0.50;;;3.10;99.90;;;;;;4968204;29;20756;-89
2021/01/19 01:57:31;;;;;;;0.50;0.50;;;3.00;99.90;;;;;;4969034;29;20230;-89
2021/01/19 02:00:00;;;;;;;0.50;0.50;;;7.50;99.90;;;;;;4969944;29;20215;-89
2021/01/19 02:02:28;;;;;;;0.50;0.50;;;;;;;;;;4968745;29;20211;-89
2021/01/19 02:05:04;;;;;;;0.50;0.50;;;;;;;;;;4975918;29;20255;-90
2021/01/19 02:07:59;;;;;;;0.50;0.50;;;2.00;99.90;;;;;;4973708;29;20290;-90
2021/01/19 02:10:35;;;;;;;0.47;0.47;;;3.20;99.90;;;;;;4954100;29;20882;-89
2021/01/19 02:13:13;;;;;;;0.50;0.50;;;3.30;99.90;;;;;;4954910;28;20577;-88
2021/01/19 02:15:51;;;;;;;0.50;0.50;;;3.30;99.90;;;;;;4952829;29;20572;-89
2021/01/19 02:18:28;;;;;;;0.50;0.50;;;3.30;99.90;;;;;;4953588;29;20212;-90
2021/01/19 02:21:13;;;;;;;0.50;0.50;;;2.50;99.90;;;;;;4953468;29;20211;-89
2021/01/19 02:23:53;;;;;;;0.50;0.50;;;3.20;99.90;;;;;;4952977;28;20230;-88
2021/01/19 02:26:59;;;;;;;0.50;0.50;;;3.20;99.90;;;;;;4953814;29;20211;-89
2021/01/19 02:29:55;;;;;;;0.50;0.50;;;3.20;99.90;;;;;;4946968;29;20218;-88
2021/01/19 02:32:34;;;;;;;0.50;0.50;;;3.20;99.90;;;;;;4952564;29;20215;-88
2021/01/19 02:35:11;;;;;;;0.50;0.50;;;3.20;99.90;;;;;;4952085;29;20294;-88
2021/01/19 02:37:54;;;;;;;0.50;0.50;;;3.10;99.90;;;;;;4952945;29;20267;-88
2021/01/19 02:40:24;;;;;;;0.50;0.50;;;2.90;99.90;;;;;;4952111;29;20207;-88
2021/01/19 02:43:07;;;;;;;0.50;0.50;;;2.10;99.90;;;;;;4952571;29;20235;-88
2021/01/19 02:45:37;;;;;;;0.50;0.50;;;;;;;;;;4952294;28;20255;-89
2021/01/19 02:48:05;;;;;;;0.50;0.50;;;3.30;99.90;;;;;;4951854;29;20208;-88
2021/01/19 02:50:33;;;;;;;0.50;0.50;;;;;;;;;;4952734;29;20211;-88
2021/01/19 02:53:07;;;;;;;0.50;0.50;;;3.30;99.90;;;;;;4952287;29;20211;-88
2021/01/19 02:55:36;;;;;;;0.50;0.50;;;3.50;99.90;;;;;;4954744;29;20204;-89
2021/01/19 02:58:06;;;;;;;0.50;0.50;;;3.90;99.90;;;;;;4957964;29;20271;-89
2021/01/19 03:04:38;;;;;;;0.50;0.50;;;2.60;99.90;;;;;;4950879;29;20200;-88
2021/01/19 03:07:10;;;;;;;0.50;0.50;;;3.20;99.90;;;;;;4896486;29;20357;-89
2021/01/19 03:12:17;;;;;;;0.50;0.50;;;3.00;99.90;;;;;;5425266;23;20807;-87
2021/01/19 03:14:44;;;;;;;0.50;0.50;;;;;;;;;;4974497;28;20238;-88
2021/01/19 03:17:14;;;;;;;0.50;0.50;;;3.20;99.90;;;;;;4973774;28;20305;-88
2021/01/19 03:19:42;;;;;;;0.50;0.50;;;3.20;99.90;;;;;;4973215;28;20253;-87
2021/01/19 03:22:10;;;;;;;0.50;0.50;;;3.20;99.90;;;;;;4974403;28;20654;-87
2021/01/19 03:24:36;;;;;;;0.50;0.50;;;;;;;;;;4973417;28;20298;-87
2021/01/19 03:27:03;;;;;;;0.50;0.50;;;;;;;;;;4974263;28;20207;-87
2021/01/19 03:29:31;;;;;;;0.50;0.50;;;;;;;;;;4973814;28;20210;-86
2021/01/19 03:32:05;;;;;;;0.50;0.50;;;3.30;99.90;;;;;;4974925;28;20293;-88
2021/01/19 03:34:33;;;;;;;0.50;0.50;;;3.30;99.90;;;;;;4972823;28;20231;-87
2021/01/19 03:36:59;;;;;;;0.43;0.43;;;2.60;99.90;;;;;;4972866;28;20298;-86
2021/01/19 03:39:28;;;;;;;0.50;0.50;;;3.10;99.90;;;;;;4972615;28;20211;-87
2021/01/19 03:41:57;;;;;;;0.50;0.50;;;3.20;99.90;;;;;;4973012;28;20199;-87
2021/01/19 03:44:24;;;;;;;0.40;0.40;;;;;;;;;;4972798;28;20213;-87
2021/01/19 03:46:52;;;;;;;0.50;0.50;;;3.20;99.90;;;;;;4972571;28;20266;-87
2021/01/19 03:49:19;;;;;;;0.47;0.47;;;;;;;;;;4972770;28;20256;-88
2021/01/19 03:51:47;;;;;;;0.40;0.40;;;3.20;99.90;;;;;;4972669;28;20203;-88
2021/01/19 03:54:14;;;;;;;0.50;0.50;;;;;;;;;;4972812;28;20370;-89
2021/01/19 03:56:41;;;;;;;0.50;0.50;;;3.20;99.90;;;;;;4972392;28;20290;-86
2021/01/19 03:59:07;;;;;;;0.50;0.50;;;3.40;99.90;;;;;;4975530;28;20207;-86
2021/01/19 04:01:39;;;;;;;0.50;0.50;;;3.30;99.90;;;;;;4976185;28;20623;-86
2021/01/19 04:04:05;;;;;;;0.50;0.50;;;;;;;;;;4976382;28;20218;-85
2021/01/19 04:06:32;;;;;;;0.50;0.50;;;;;;;;;;4976107;28;20203;-86
2021/01/19 04:08:58;;;;;;;0.50;0.50;;;;;;;;;;4976286;28;20203;-85
2021/01/19 04:11:25;;;;;;;0.50;0.50;;;3.20;99.90;;;;;;4975828;28;20567;-85
2021/01/19 04:13:53;;;;;;;0.50;0.50;;;6.30;99.90;;;;;;4976156;28;20234;-85
2021/01/19 04:16:19;;;;;;;0.50;0.50;;;;;;;;;;4976003;28;20211;-86
2021/01/19 04:18:46;;;;;;;0.50;0.50;;;;;;;;;;4974516;28;20827;-86
2021/01/19 04:21:12;;;;;;;0.45;0.45;;;;;;;;;;4975888;28;20226;-86
2021/01/19 04:23:39;;;;;;;0.50;0.50;;;;;;;;;;4975958;28;20302;-86
2021/01/19 04:26:06;;;;;;;0.50;0.50;;;;;;;;;;4975952;28;20571;-86
2021/01/19 04:28:33;;;;;;;0.50;0.50;;;;;;;;;;4975851;28;20257;-85
2021/01/19 04:31:00;;;;;;;0.50;0.50;;;3.30;99.90;;;;;;4975848;28;20211;-85
2021/01/19 04:33:27;;;;;;;0.50;0.50;;;;;;;;;;4974856;28;20227;-86
2021/01/19 04:35:53;;;;;;;0.50;0.50;;;3.20;99.90;;;;;;4975782;28;20195;-85
2021/01/19 04:38:21;;;;;;;0.40;0.40;;;;;;;;;;4990636;28;20202;-85
2021/01/19 04:40:47;;;;;;;0.50;0.50;;;;;;;;;;4954020;29;20691;-85
2021/01/19 04:43:16;;;;;;;0.50;0.50;;;3.30;99.90;;;;;;4959422;28;20219;-85
2021/01/19 04:45:46;;;;;;;0.50;0.50;;;3.30;99.90;;;;;;4977354;28;20215;-85
2021/01/19 04:48:13;;;;;;;0.50;0.50;;;3.80;99.90;;;;;;4974433;28;20203;-85
2021/01/19 04:50:40;;;;;;;0.50;0.50;;;;;;;;;;4973804;28;20214;-86
2021/01/19 04:53:09;;;;;;;0.50;0.50;;;3.30;99.90;;;;;;4973997;28;20261;-88
2021/01/19 04:55:37;;;;;;;0.50;0.50;;;3.60;99.90;;;;;;4973678;28;20211;-86
2021/01/19 04:58:12;;;;;;;0.40;0.40;;;3.50;99.90;;;;;;4973743;28;20667;-87
2021/01/19 05:00:38;;;;;;;0.50;0.50;;;3.40;99.90;;;;;;4974100;28;20202;-86
2021/01/19 05:03:19;;;;;;;0.50;0.50;;;3.40;99.90;;;;;;4974873;28;20203;-88
2021/01/19 05:06:24;;;;;;;0.50;0.50;;;3.00;99.90;;;;;;4979983;28;20203;-86
2021/01/19 05:08:56;;;;;;;0.50;0.50;;;3.20;99.90;;;;;;4952474;28;20217;-86
2021/01/19 05:11:24;;;;;;;0.50;0.50;;;3.20;99.90;;;;;;4953688;29;20782;-87
2021/01/19 05:13:53;;;;;;;0.40;0.40;;;3.30;99.90;;;;;;4955238;29;20242;-87
2021/01/19 05:16:21;;;;;;;0.50;0.50;;;2.80;99.90;;;;;;4955957;29;20204;-86
2021/01/19 05:18:48;;;;;;;0.40;0.40;;;2.80;99.90;;;;;;4955595;29;20211;-87
2021/01/19 05:21:15;;;;;;;0.50;0.50;;;3.30;99.90;;;;;;4955608;29;20647;-87
2021/01/19 05:23:42;;;;;;;0.50;0.50;;;3.10;99.90;;;;;;4955161;29;20214;-86
2021/01/19 05:26:10;;;;;;;0.50;0.50;;;3.40;99.90;;;;;;4955913;29;20206;-86
2021/01/19 05:28:38;;;;;;;0.50;0.50;;;3.20;99.90;;;;;;4955302;29;20302;-86
2021/01/19 05:31:06;;;;;;;0.40;0.40;;;3.30;99.90;;;;;;4954536;29;20208;-86
2021/01/19 05:33:34;;;;;;;0.50;0.50;;;3.30;99.90;;;;;;4973814;28;20231;-87
2021/01/19 05:36:09;;;;;;;0.50;0.50;;;2.50;99.90;;;;;;4974692;28;20513;-87
2021/01/19 05:38:46;;;;;;;0.50;0.50;;;3.10;99.90;;;;;;4974392;28;20573;-87
2021/01/19 05:41:26;;;;;;;0.40;0.40;;;3.20;99.90;;;;;;4978863;28;20539;-87
2021/01/19 05:43:53;;;;;;;0.40;0.40;;;;;;;;;;4973928;28;20634;-87
2021/01/19 05:46:26;;;;;;;0.40;0.40;;;3.20;99.90;;;;;;4973466;28;20211;-87
2021/01/19 05:48:58;;;;;;;0.40;0.40;;;3.10;99.90;;;;;;4973947;28;20262;-87
2021/01/19 05:51:29;;;;;;;0.47;0.47;;;2.10;99.90;;;;;;4974733;28;20236;-88
2021/01/19 05:53:57;;;;;;;0.40;0.40;;;4.90;99.90;;;;;;4974238;28;20254;-87
2021/01/19 05:56:23;;;;;;;0.47;0.47;;;;;;;;;;4974239;28;20285;-88
2021/01/19 05:58:50;;;;;;;0.45;0.45;;;;;;;;;;4973958;28;20207;-87
2021/01/19 06:01:31;;;;;;;0.40;0.40;;;3.20;99.90;;;;;;4974426;28;20207;-87
2021/01/19 06:03:59;;;;;;;0.50;0.50;;;3.30;99.90;;;;;;4973947;28;20538;-88
2021/01/19 06:06:37;;;;;;;0.40;0.40;;;3.20;99.90;;;;;;4973769;28;20261;-87
2021/01/19 06:09:05;;;;;;;0.45;0.45;;;3.20;99.90;;;;;;4973296;28;20210;-88
2021/01/19 06:11:32;;;;;;;0.40;0.40;;;;;;;;;;4973523;28;21130;-88
2021/01/19 06:13:59;;;;;;;0.45;0.45;;;;;;;;;;4973355;28;20227;-87
2021/01/19 06:16:34;;;;;;;0.40;0.40;;;3.20;99.90;;;;;;4972820;28;20198;-88
2021/01/19 06:19:04;;;;;;;0.40;0.40;;;;;;;;;;4973419;28;20230;-88
2021/01/19 06:21:34;;;;;;;0.40;0.40;;;3.60;99.90;;;;;;4973948;28;20207;-88
2021/01/19 06:24:01;;;;;;;0.50;0.50;;;3.10;99.90;;;;;;4974538;28;20207;-88
2021/01/19 06:26:31;;;;;;;0.40;0.40;;;;;;;;;;4974376;28;20219;-88
2021/01/19 06:28:58;;;;;;;0.40;0.40;;;;;;;;;;4974146;28;20307;-87
2021/01/19 06:31:24;;;;;;;0.40;0.40;;;;;;;;;;4974199;28;20211;-87
2021/01/19 06:33:51;;;;;;;0.40;0.40;;;3.00;99.90;;;;;;4973575;28;20223;-87
2021/01/19 06:36:19;;;;;;;0.43;0.43;;;2.80;99.90;;;;;;4973384;28;20265;-87
2021/01/19 06:38:50;;;;;;;0.50;0.50;;;2.10;99.90;;;;;;4974005;28;20207;-87
2021/01/19 06:41:19;;;;;;;0.40;0.40;;;2.90;99.90;;;;;;4974261;28;20338;-86
2021/01/19 06:44:29;;;;;;;0.40;0.40;;;2.80;99.90;;;;;;4917648;28;20735;-87
2021/01/19 06:46:58;;;;;;;0.40;0.40;;;2.80;99.90;;;;;;4950074;28;20445;-87
2021/01/19 06:49:27;;;;;;;0.50;0.50;;;2.80;99.90;;;;;;4976694;28;20209;-87
2021/01/19 06:52:07;;;;;;;0.40;0.40;;;2.80;99.90;;;;;;4980671;28;20222;-87
2021/01/19 06:55:04;;;;;;;0.40;0.40;;;2.80;99.90;;;;;;4977851;28;20222;-87
2021/01/19 06:57:48;;;;;;;0.40;0.40;;;2.80;99.90;;;;;;4976234;28;20205;-89
2021/01/19 07:00:21;;;;;;;0.40;0.40;;;2.80;99.90;;;;;;4977423;28;20220;-88
2021/01/19 07:02:51;;;;;;;0.50;0.50;;;2.50;99.90;;;;;;4973729;28;20298;-88
2021/01/19 07:05:20;;;;;;;0.40;0.40;;;2.70;99.90;;;;;;4962628;28;20199;-87
2021/01/19 07:07:48;;;;;;;0.40;0.40;;;2.70;99.90;;;;;;4980293;28;20666;-88
2021/01/19 07:10:56;;;;;;;0.40;0.40;;;2.70;99.90;;;;;;4976160;28;20207;-89
2021/01/19 07:13:46;;;;;;;0.40;0.40;;;2.60;99.90;;;;;;4964087;28;20203;-88
2021/01/19 07:16:45;;;;;;;0.40;0.40;;;2.60;99.90;;;;;;4969765;28;20217;-87
2021/01/19 07:20:27;;;;;;;0.50;0.50;;;2.40;99.90;;;;;;4889670;29;20210;-89
2021/01/19 07:33:05;;;;;;;0.40;0.40;;;2.50;99.90;;;;;;4909911;28;20412;-88
2021/01/19 07:38:44;;;;;;;0.45;0.45;;;3.10;99.90;;;;;;4964663;28;20269;-88
2021/01/19 07:44:17;;;;;;;0.40;0.40;;;2.40;99.90;;;;;;4966142;28;20206;-87
2021/01/19 07:46:47;;;;;;;0.40;0.40;;;;;;;;;;4949593;28;20221;-88
2021/01/19 07:49:36;;;;;;;0.40;0.40;;;2.40;99.90;;;;;;4970460;28;20727;-87
2021/01/19 07:55:35;;;;;;;0.40;0.40;;;-0.90;99.90;;;;;;4909115;28;20230;-88
2021/01/19 08:07:44;;;;;;;0.40;0.40;;;2.30;99.90;;;;;;4959469;28;20682;-87
2021/01/19 08:10:25;;;;;;;0.40;0.40;;;2.70;99.90;;;;;;4970463;28;20211;-88
2021/01/19 08:13:03;;;;;;;0.40;0.40;;;2.20;99.90;;;;;;4969256;28;20239;-87
2021/01/19 08:18:48;;;;;;;0.40;0.40;;;2.20;99.90;;;;;;4961732;28;20217;-88
2021/01/19 08:21:30;;;;;;;;;;;;;;;;;;;;;
2021/01/19 08:24:21;;;;;;;0.40;0.40;;;2.10;99.90;;;;;;4968010;28;20199;-90
2021/01/19 08:26:53;;;;;;;0.40;0.40;;;2.20;99.90;;;;;;4970936;28;20656;-88
2021/01/19 08:29:41;;;;;;;0.40;0.40;;;2.20;99.90;;;;;;4970975;28;20210;-88
2021/01/19 08:32:13;;;;;;;0.40;0.40;;;2.10;99.90;;;;;;4964969;28;20270;-88
2021/01/19 08:34:47;;;;;;;0.40;0.40;;;2.10;99.90;;;;;;4968977;28;20226;-87
2021/01/19 08:37:28;;;;;;;0.40;0.40;;;2.10;99.90;;;;;;4980319;28;20209;-87
2021/01/19 08:39:57;;;;;;;0.40;0.40;;;2.10;99.90;;;;;;4974402;28;20221;-87
2021/01/19 08:42:29;;;;;;;0.40;0.40;;;1.90;99.90;;;;;;4956386;28;20215;-87
2021/01/19 08:44:59;;;;;;;0.40;0.40;;;2.00;99.90;;;;;;4978149;28;20666;-87
2021/01/19 08:47:27;;;;;;;0.40;0.40;;;2.00;99.90;;;;;;4965627;28;20298;-86
2021/01/19 08:49:55;;;;;;;0.40;0.40;;;;;;;;;;4978330;28;20575;-88
2021/01/19 08:52:26;;;;;;;0.40;0.40;;;1.90;99.90;;;;;;4980314;28;20218;-87
2021/01/19 08:54:53;;;;;;;0.40;0.40;;;;;;;;;;4981868;28;20233;-87
2021/01/19 08:57:28;;;;;;;0.40;0.40;;;1.90;99.90;;;;;;4984602;28;20214;-88
2021/01/19 09:00:37;;;;;;;0.40;0.40;;;2.20;99.90;;;;;;4980991;28;20233;-89
2021/01/19 09:03:38;;;;;;;0.40;0.40;;;2.30;99.90;;;;;;4978442;28;20379;-88
2021/01/19 09:37:08;;;;;;;0.40;0.40;;;1.40;99.90;;;;;;4689251;30;20213;-89
2021/01/19 09:49:35;;;;;;;0.50;0.50;;;0.80;99.90;;;;;;5091298;27;20490;-83
2021/01/19 09:52:09;;;;;;;0.40;0.40;;;1.30;99.90;;;;;;5083140;28;20215;-83
2021/01/19 09:54:35;;;;;;;0.40;0.40;;;1.30;99.90;;;;;;5076995;28;20205;-83
2021/01/19 09:57:01;;;;;;;0.40;0.40;;;1.30;99.90;;;;;;5079202;28;20226;-84
2021/01/19 09:59:29;;;;;;;0.40;0.40;;;1.30;99.90;;;;;;5081585;28;20245;-83
2021/01/19 10:01:56;;;;;;;0.40;0.40;;;1.40;99.90;;;;;;5082810;28;20638;-83
2021/01/19 10:04:23;;;;;;;0.40;0.40;;;1.40;99.90;;;;;;5082607;28;20206;-83
2021/01/19 10:07:00;;;;;;;0.40;0.40;;;1.40;99.90;;;;;;5081396;28;20209;-83
2021/01/19 10:09:26;;;;;;;0.40;0.40;;;1.40;99.90;;;;;;5083832;28;20283;-83
2021/01/19 10:11:57;;;;;;;0.40;0.40;;;1.50;99.90;;;;;;5078187;28;20207;-83
2021/01/19 10:14:30;;;;;;;0.40;0.40;;;1.50;99.90;;;;;;5075633;28;20214;-83
2021/01/19 10:17:00;;;;;;;0.40;0.40;;;1.50;99.90;;;;;;5078787;28;20604;-83
2021/01/19 10:19:28;;;;;;;0.40;0.40;;;1.80;99.90;;;;;;5081626;28;20207;-83
2021/01/19 10:21:57;;;;;;;0.40;0.40;;;1.70;99.90;;;;;;5080426;28;20202;-85
2021/01/19 10:24:25;;;;;;;0.40;0.40;;;1.70;99.90;;;;;;5059630;28;20231;-84
2021/01/19 10:27:03;;;;;;;0.40;0.40;;;1.80;99.90;;;;;;5059032;28;20237;-83
2021/01/19 10:29:31;;;;;;;0.40;0.40;;;1.80;99.90;;;;;;5039200;28;20521;-83
2021/01/19 10:32:01;;;;;;;0.40;0.40;;;1.80;99.90;;;;;;5044562;28;20293;-83
2021/01/19 10:34:29;;;;;;;0.40;0.40;;;1.90;99.90;;;;;;5056227;28;20215;-83
2021/01/19 10:36:58;;;;;;;0.40;0.40;;;1.90;99.90;;;;;;5041719;28;20299;-83
2021/01/19 10:39:26;;;;;;;0.40;0.40;;;1.90;99.90;;;;;;5045913;28;20200;-83
2021/01/19 10:41:53;;;;;;;0.40;0.40;;;2.00;99.90;;;;;;5044635;28;20686;-83
2021/01/19 10:44:24;;;;;;;0.40;0.40;;;2.10;99.90;;;;;;5054131;28;20212;-83
2021/01/19 10:46:57;;;;;;;0.40;0.40;;;2.10;99.90;;;;;;5053026;28;20223;-83
2021/01/19 10:49:27;;;;;;;0.40;0.40;;;2.20;99.90;;;;;;5042376;28;20228;-83
2021/01/19 10:51:53;;;;;;;0.40;0.40;;;2.20;99.90;;;;;;5054280;28;20670;-83
2021/01/19 10:54:21;;;;;;;0.40;0.40;;;2.30;99.90;;;;;;5047573;28;20204;-84
2021/01/19 10:57:02;;;;;;;0.40;0.40;;;2.30;99.90;;;;;;5051596;28;20192;-83
2021/01/19 10:59:28;;;;;;;0.40;0.40;;;2.30;99.90;;;;;;5043528;28;20204;-83
2021/01/19 11:01:55;;;;;;;0.40;0.40;;;2.30;99.90;;;;;;5032371;28;20443;-83
2021/01/19 11:04:24;;;;;;;0.40;0.40;;;2.30;99.90;;;;;;5037068;28;20235;-83
2021/01/19 11:06:50;;;;;;;0.40;0.40;;;2.30;99.90;;;;;;5035437;28;20284;-83
2021/01/19 11:09:16;;;;;;;0.40;0.40;;;2.30;99.90;;;;;;5036745;28;20231;-84
2021/01/19 11:11:44;;;;;;;0.40;0.40;;;2.30;99.90;;;;;;5037957;28;20236;-83
2021/01/19 11:14:11;;;;;;;0.40;0.40;;;2.30;99.90;;;;;;5038776;28;20200;-83
2021/01/19 11:16:39;;;;;;;0.40;0.40;;;2.40;99.90;;;;;;5036389;28;20383;-83
2021/01/19 11:19:06;;;;;;;0.40;0.40;;;2.40;99.90;;;;;;5038447;28;20196;-83
2021/01/19 11:21:33;;;;;;;0.40;0.40;;;2.40;99.90;;;;;;5037733;28;20209;-83
2021/01/19 11:24:00;;;;;;;0.40;0.40;;;2.40;99.90;;;;;;5038966;28;20247;-84
2021/01/19 11:26:26;;;;;;;0.40;0.40;;;2.50;99.90;;;;;;5035367;28;20215;-83
2021/01/19 11:28:54;;;;;;;0.40;0.40;;;2.40;99.90;;;;;;5034361;28;20228;-83
2021/01/19 11:31:33;;;;;;;0.40;0.40;;;2.50;99.90;;;;;;5033569;28;20216;-86
2021/01/19 11:34:02;;;;;;;0.40;0.40;;;2.80;99.90;;;;;;5034090;28;20281;-83
2021/01/19 11:36:30;;;;;;;0.40;0.40;;;3.70;99.90;;;;;;5035642;28;20223;-83
2021/01/19 11:38:58;;;;;;;0.40;0.40;;;2.80;99.90;;;;;;5035680;28;20201;-83
2021/01/19 11:41:26;;;;;;;0.40;0.40;;;2.10;99.90;;;;;;5037880;28;20667;-83
2021/01/19 11:43:54;;;;;;;0.40;0.40;;;2.50;99.90;;;;;;5037951;28;20511;-83
2021/01/19 11:46:22;;;;;;;0.40;0.40;;;2.60;99.90;;;;;;5035302;28;20215;-83
2021/01/19 11:48:48;;;;;;;0.40;0.40;;;2.50;99.90;;;;;;5036136;28;20232;-83
2021/01/19 11:51:18;;;;;;;0.45;0.45;;;2.60;99.90;;;;;;5034963;28;20671;-83
2021/01/19 11:53:49;;;;;;;0.40;0.40;;;2.60;99.90;;;;;;5033543;28;20725;-82
2021/01/19 11:56:16;;;;;;;0.40;0.40;;;2.60;99.90;;;;;;5037361;28;20278;-83
2021/01/19 11:58:42;;;;;;;0.40;0.40;;;2.60;99.90;;;;;;5033366;28;20642;-83
2021/01/19 12:01:17;;;;;;;0.40;0.40;;;2.70;99.90;;;;;;5035826;28;20208;-83
2021/01/19 12:03:43;;;;;;;0.40;0.40;;;2.70;99.90;;;;;;5036373;28;20202;-83
2021/01/19 12:06:10;;;;;;;0.40;0.40;;;2.70;99.90;;;;;;5035253;28;20574;-82
2021/01/19 12:08:36;;;;;;;0.40;0.40;;;2.70;99.90;;;;;;5035618;28;20256;-83
2021/01/19 12:11:02;;;;;;;0.40;0.40;;;2.70;99.90;;;;;;5037131;28;20200;-83
2021/01/19 12:13:31;;;;;;;0.40;0.40;;;2.70;99.90;;;;;;5037641;28;20202;-86
2021/01/19 12:15:57;;;;;;;0.40;0.40;;;2.80;99.90;;;;;;5038264;28;20205;-85
2021/01/19 12:18:24;;;;;;;0.40;0.40;;;2.80;99.90;;;;;;5034408;28;20574;-85
2021/01/19 12:20:50;;;;;;;0.40;0.40;;;2.90;99.90;;;;;;5029692;28;20205;-85
2021/01/19 12:23:16;;;;;;;0.40;0.40;;;2.90;99.90;;;;;;5029158;28;20232;-85
2021/01/19 12:25:42;;;;;;;0.40;0.40;;;3.00;99.90;;;;;;5029969;28;20208;-85
2021/01/19 12:28:08;;;;;;;0.40;0.40;;;3.00;99.90;;;;;;5038241;28;20251;-85
2021/01/19 12:30:34;;;;;;;0.40;0.40;;;3.00;99.90;;;;;;5044010;28;20201;-85
2021/01/19 12:33:00;;;;;;;0.40;0.40;;;3.10;99.90;;;;;;5045007;28;20297;-85
2021/01/19 12:35:27;;;;;;;0.40;0.40;;;3.10;99.90;;;;;;5044655;28;20212;-85
2021/01/19 12:37:54;;;;;;;0.40;0.40;;;3.10;99.90;;;;;;5043470;28;20227;-85
2021/01/19 12:40:21;;;;;;;0.40;0.40;;;3.00;99.90;;;;;;5043472;28;20203;-86
2021/01/19 12:42:47;;;;;;;0.40;0.40;;;3.10;99.90;;;;;;5041672;28;20574;-85
2021/01/19 12:45:13;;;;;;;0.40;0.40;;;3.00;99.90;;;;;;5040572;28;20666;-85
2021/01/19 12:47:39;;;;;;;0.40;0.40;;;3.00;99.90;;;;;;5040364;28;20228;-85
2021/01/19 12:50:09;;;;;;;0.40;0.40;;;3.10;99.90;;;;;;5041332;28;20267;-85
2021/01/19 12:52:36;;;;;;;0.50;0.50;;;3.00;99.90;;;;;;5040003;28;20202;-85
2021/01/19 12:55:02;;;;;;;0.40;0.40;;;3.10;99.90;;;;;;5040300;28;20232;-86
2021/01/19 12:57:28;;;;;;;0.40;0.40;;;3.10;99.90;;;;;;5037631;28;20270;-85
2021/01/19 12:59:54;;;;;;;0.40;0.40;;;3.10;99.90;;;;;;5037846;28;20200;-85
2021/01/19 13:02:20;;;;;;;0.40;0.40;;;3.10;99.90;;;;;;5036468;28;20681;-85
2021/01/19 13:04:47;;;;;;;0.40;0.40;;;3.10;99.90;;;;;;5041159;28;20224;-83
2021/01/19 13:07:13;;;;;;;0.40;0.40;;;3.10;99.90;;;;;;5041657;28;20216;-84
2021/01/19 13:09:40;;;;;;;0.40;0.40;;;3.20;99.90;;;;;;5038339;28;20588;-88
2021/01/19 13:12:07;;;;;;;0.40;0.40;;;3.20;99.90;;;;;;5044814;28;20572;-86
2021/01/19 13:14:33;;;;;;;0.40;0.40;;;3.20;99.90;;;;;;5040983;28;20355;-85
2021/01/19 13:16:59;;;;;;;0.40;0.40;;;3.20;99.90;;;;;;5040572;28;20208;-87
2021/01/19 13:19:26;;;;;;;0.40;0.40;;;3.20;99.90;;;;;;5041078;28;20262;-86
2021/01/19 13:21:52;;;;;;;0.40;0.40;;;3.20;99.90;;;;;;5042185;28;20215;-86
2021/01/19 13:24:18;;;;;;;0.40;0.40;;;3.30;99.90;;;;;;5040870;28;20305;-86
2021/01/19 13:26:47;;;;;;;0.40;0.40;;;3.30;99.90;;;;;;5039751;28;20205;-86
2021/01/19 13:29:13;;;;;;;0.40;0.40;;;3.30;99.90;;;;;;5039652;28;20224;-87
2021/01/19 13:31:39;;;;;;;0.40;0.40;;;3.30;99.90;;;;;;5043191;28;20235;-87
2021/01/19 13:34:05;;;;;;;0.40;0.40;;;3.30;99.90;;;;;;5029686;28;20211;-86
2021/01/19 13:36:31;;;;;;;0.40;0.40;;;3.40;99.90;;;;;;5029396;28;20222;-87
2021/01/19 13:38:58;;;;;;;0.40;0.40;;;3.40;99.90;;;;;;5040041;28;20204;-87
2021/01/19 13:41:24;;;;;;;0.40;0.40;;;3.40;99.90;;;;;;5046849;28;20204;-87
2021/01/19 13:43:51;;;;;;;0.40;0.40;;;3.40;99.90;;;;;;5039258;28;20215;-87
2021/01/19 13:46:17;;;;;;;0.40;0.40;;;3.50;99.90;;;;;;5038533;28;20730;-87
2021/01/19 13:48:43;;;;;;;0.40;0.40;;;3.50;99.90;;;;;;5041182;28;20290;-87
2021/01/19 13:51:11;;;;;;;0.40;0.40;;;3.50;99.90;;;;;;5043059;28;20209;-87
2021/01/19 13:53:40;;;;;;;0.40;0.40;;;;;;;;;;5033446;28;20266;-87
2021/01/19 13:56:06;;;;;;;0.40;0.40;;;3.50;99.90;;;;;;5038027;28;20209;-86
2021/01/19 13:58:32;;;;;;;0.40;0.40;;;3.50;99.90;;;;;;5040314;28;20207;-87
2021/01/19 14:01:00;;;;;;;0.40;0.40;;;3.50;99.90;;;;;;5039915;28;20201;-87
2021/01/19 14:03:26;;;;;;;0.40;0.40;;;3.60;99.90;;;;;;5040985;28;20300;-87
2021/01/19 14:05:52;;;;;;;0.40;0.40;;;3.60;99.90;;;;;;5043964;28;20246;-87
2021/01/19 14:08:19;;;;;;;0.40;0.40;;;3.60;99.90;;;;;;5049207;28;20231;-87
2021/01/19 14:10:45;;;;;;;0.40;0.40;;;3.60;99.90;;;;;;5049968;28;20204;-87
2021/01/19 14:13:12;;;;;;;0.40;0.40;;;3.60;99.90;;;;;;5050192;28;20204;-86
2021/01/19 14:15:38;;;;;;;0.40;0.40;;;3.70;99.90;;;;;;5048806;28;20200;-87
2021/01/19 14:18:06;;;;;;;0.40;0.40;;;3.70;99.90;;;;;;5033578;28;20287;-86
2021/01/19 14:20:32;;;;;;;0.40;0.40;;;3.70;99.90;;;;;;5028986;28;20640;-87
2021/01/19 14:22:58;;;;;;;0.40;0.40;;;3.70;99.90;;;;;;5029532;28;20221;-87
2021/01/19 14:25:25;;;;;;;0.40;0.40;;;3.80;99.90;;;;;;5029031;28;20209;-87
2021/01/19 14:27:54;;;;;;;0.40;0.40;;;3.80;99.90;;;;;;5029606;28;20251;-88
2021/01/19 14:30:21;;;;;;;0.40;0.40;;;3.80;99.90;;;;;;5028447;28;20239;-86
2021/01/19 14:36:10;;;;;;;0.40;0.40;;;3.80;99.90;;;;;;5008031;28;20292;-87
2021/01/19 14:38:36;;;;;;;0.40;0.40;;;3.90;99.90;;;;;;5030548;28;20622;-87
2021/01/19 14:41:04;;;;;;;0.40;0.40;;;3.80;99.90;;;;;;5032329;28;20213;-87
2021/01/19 14:43:30;;;;;;;0.40;0.40;;;3.70;99.90;;;;;;5031535;28;20213;-87
2021/01/19 14:45:58;;;;;;;0.40;0.40;;;3.80;99.90;;;;;;5031965;28;20228;-87
2021/01/19 14:48:26;;;;;;;0.40;0.40;;;3.90;99.90;;;;;;5031657;28;20276;-87
2021/01/19 14:50:52;;;;;;;0.40;0.40;;;3.90;99.90;;;;;;5032167;28;20221;-87
2021/01/19 14:53:18;;;;;;;0.40;0.40;;;3.60;99.90;;;;;;5031738;28;20208;-87
2021/01/19 14:55:45;;;;;;;0.40;0.40;;;3.90;99.90;;;;;;5032294;28;20232;-87
2021/01/19 14:58:11;;;;;;;0.40;0.40;;;3.90;99.90;;;;;;5031989;28;20627;-87